createdAt,value
2018-03-03T00:01:48.392Z,68.68
2018-03-03T00:04:19.706Z,64.12
2018-03-03T00:06:51.642Z,63.17
2018-03-03T00:09:23.229Z,56.83
2018-03-03T00:11:54.273Z,61.25
2018-03-03T00:14:25.808Z,70.68
2018-03-03T00:16:58.468Z,62.03
2018-03-03T00:19:31.157Z,63.65
2018-03-03T00:22:04.879Z,57.53
2018-03-03T00:24:36.192Z,63.15
2018-03-03T00:27:07.331Z,59.95
2018-03-03T00:29:38.806Z,67.80
2018-03-03T00:32:10.799Z,67.35
2018-03-03T00:34:42.395Z,57.22
2018-03-03T00:37:14.083Z,59.30
2018-03-03T00:39:45.735Z,67.10
2018-03-03T00:42:18.230Z,62.88
2018-03-03T00:44:50.836Z,64.28
2018-03-03T00:47:22.234Z,66.87
2018-03-03T00:49:55.301Z,61.53
2018-03-03T00:52:26.409Z,61.85
2018-03-03T00:54:58.106Z,66.90
2018-03-03T00:57:29.591Z,66.60
2018-03-03T01:00:01.322Z,63.22
2018-03-03T01:02:32.624Z,65.15
2018-03-03T01:05:04.551Z,62.17
2018-03-03T01:07:37.065Z,61.45
2018-03-03T01:10:08.586Z,65.07
2018-03-03T01:12:40.025Z,63.33
2018-03-03T01:15:13.225Z,59.38
2018-03-03T01:17:45.773Z,64.32
2018-03-03T01:20:19.285Z,56.47
2018-03-03T01:22:51.540Z,67.55
2018-03-03T01:25:23.112Z,60.70
2018-03-03T01:27:55.272Z,67.00
2018-03-03T01:30:28.764Z,62.00
2018-03-03T01:33:00.411Z,59.55
2018-03-03T01:35:32.188Z,71.07
2018-03-03T01:38:04.549Z,68.28
2018-03-03T01:40:35.675Z,64.22
2018-03-03T01:43:07.138Z,60.85
2018-03-03T01:45:39.379Z,57.97
2018-03-03T01:48:11.395Z,63.30
2018-03-03T01:50:43.201Z,63.13
2018-03-03T01:53:14.943Z,66.43
2018-03-03T01:55:46.224Z,59.67
2018-03-03T01:58:17.904Z,64.95
2018-03-03T02:00:48.765Z,67.30
2018-03-03T02:03:20.778Z,60.90
2018-03-03T02:05:52.382Z,67.80
2018-03-03T02:08:24.985Z,63.78
2018-03-03T02:10:56.227Z,70.00
2018-03-03T02:13:27.154Z,66.07
2018-03-03T02:15:58.488Z,56.40
2018-03-03T02:18:30.490Z,60.70
2018-03-03T02:21:01.675Z,59.92
2018-03-03T02:23:32.514Z,67.00
2018-03-03T02:26:03.851Z,58.87
2018-03-03T02:28:35.600Z,63.90
2018-03-03T02:31:09.320Z,64.60
2018-03-03T02:33:40.174Z,61.25
2018-03-03T02:36:11.579Z,65.47
2018-03-03T02:38:42.909Z,60.88
2018-03-03T02:41:14.732Z,57.62
2018-03-03T02:43:46.729Z,58.58
2018-03-03T02:46:17.452Z,59.85
2018-03-03T02:48:48.179Z,61.80
2018-03-03T02:51:20.767Z,57.97
2018-03-03T02:53:51.480Z,61.88
2018-03-03T02:56:22.853Z,62.90
2018-03-03T02:58:53.419Z,57.17
2018-03-03T03:01:23.985Z,66.07
2018-03-03T03:03:55.976Z,63.83
2018-03-03T03:06:26.339Z,60.88
2018-03-03T03:08:56.932Z,57.67
2018-03-03T03:11:27.960Z,68.90
2018-03-03T03:13:58.427Z,60.53
2018-03-03T03:16:28.821Z,61.55
2018-03-03T03:18:59.402Z,62.75
2018-03-03T03:21:29.755Z,62.78
2018-03-03T03:24:01.177Z,60.42
2018-03-03T03:26:31.576Z,59.08
2018-03-03T03:29:02.000Z,62.65
2018-03-03T03:31:32.692Z,63.08
2018-03-03T03:34:03.738Z,60.55
2018-03-03T03:36:35.094Z,66.68
2018-03-03T03:39:06.315Z,57.53
2018-03-03T03:41:36.970Z,63.35
2018-03-03T03:44:09.414Z,62.03
2018-03-03T03:46:39.835Z,63.50
2018-03-03T03:49:10.202Z,64.22
2018-03-03T03:51:41.139Z,57.70
2018-03-03T03:54:11.707Z,66.50
2018-03-03T03:56:41.899Z,61.72
2018-03-03T03:59:12.532Z,63.67
2018-03-03T04:01:43.358Z,58.03
2018-03-03T04:04:13.864Z,61.65
2018-03-03T04:06:44.916Z,62.53
2018-03-03T04:09:16.028Z,57.72
2018-03-03T04:11:46.707Z,67.40
2018-03-03T04:14:17.067Z,59.08
2018-03-03T04:16:47.349Z,62.67
2018-03-03T04:19:18.800Z,66.40
2018-03-03T04:21:49.791Z,62.67
2018-03-03T04:24:20.963Z,63.58
2018-03-03T04:26:51.864Z,66.55
2018-03-03T04:29:22.211Z,66.72
2018-03-03T04:31:52.656Z,59.50
2018-03-03T04:34:23.642Z,65.80
2018-03-03T04:36:54.000Z,67.37
2018-03-03T04:39:24.362Z,66.18
2018-03-03T04:41:55.423Z,60.00
2018-03-03T04:44:26.256Z,65.93
2018-03-03T04:46:56.560Z,67.12
2018-03-03T04:49:28.190Z,58.78
2018-03-03T04:51:58.702Z,65.97
2018-03-03T04:54:29.078Z,59.80
2018-03-03T04:56:59.972Z,61.08
2018-03-03T04:59:30.319Z,60.25
2018-03-03T05:02:01.933Z,59.33
2018-03-03T05:04:32.769Z,66.53
2018-03-03T05:07:03.298Z,64.78
2018-03-03T05:09:33.875Z,65.25
2018-03-03T05:12:05.626Z,57.78
2018-03-03T05:14:36.239Z,56.85
2018-03-03T05:17:07.551Z,63.10
2018-03-03T05:19:39.806Z,60.75
2018-03-03T05:22:11.649Z,60.47
2018-03-03T05:24:43.695Z,61.15
2018-03-03T05:27:15.626Z,64.15
2018-03-03T05:29:47.624Z,57.53
2018-03-03T05:32:19.786Z,61.53
2018-03-03T05:34:50.196Z,63.90
2018-03-03T05:37:20.992Z,62.58
2018-03-03T05:39:52.533Z,64.68
2018-03-03T05:42:23.227Z,55.70
2018-03-03T05:44:53.942Z,61.15
2018-03-03T05:47:24.752Z,60.10
2018-03-03T05:49:55.543Z,63.25
2018-03-03T05:52:26.808Z,62.80
2018-03-03T05:54:58.140Z,64.20
2018-03-03T05:57:29.371Z,62.38
2018-03-03T06:00:01.496Z,64.43
2018-03-03T06:02:33.067Z,57.70
2018-03-03T06:05:04.264Z,57.65
2018-03-03T06:07:35.344Z,59.28
2018-03-03T06:10:06.457Z,58.08
2018-03-03T06:12:37.274Z,63.53
2018-03-03T06:15:08.807Z,68.15
2018-03-03T06:17:40.514Z,57.33
2018-03-03T06:20:11.496Z,59.05
2018-03-03T06:22:42.633Z,63.30
2018-03-03T06:25:13.821Z,65.82
2018-03-03T06:27:46.120Z,61.97
2018-03-03T06:30:19.849Z,61.65
2018-03-03T06:32:50.920Z,67.82
2018-03-03T06:35:22.157Z,58.10
2018-03-03T06:37:53.241Z,61.05
2018-03-03T06:40:25.024Z,63.50
2018-03-03T06:42:56.182Z,64.10
2018-03-03T06:45:27.792Z,57.15
2018-03-03T06:48:00.021Z,56.47
2018-03-03T06:50:31.863Z,59.50
2018-03-03T06:53:03.333Z,56.97
2018-03-03T06:55:35.425Z,58.45
2018-03-03T06:58:07.887Z,58.85
2018-03-03T07:00:39.585Z,54.17
2018-03-03T07:03:11.055Z,47.55
2018-03-03T07:05:42.585Z,57.03
2018-03-03T07:08:14.920Z,58.08
2018-03-03T07:10:46.429Z,56.47
2018-03-03T07:13:18.344Z,58.28
2018-03-03T07:15:50.371Z,50.90
2018-03-03T07:18:21.465Z,51.30
2018-03-03T07:20:53.047Z,51.20
2018-03-03T07:23:24.374Z,51.17
2018-03-03T07:25:55.439Z,48.70
2018-03-03T07:28:27.145Z,48.40
2018-03-03T07:30:59.632Z,52.83
2018-03-03T07:33:31.420Z,53.95
2018-03-03T07:36:02.644Z,51.75
2018-03-03T07:38:33.661Z,52.10
2018-03-03T07:41:06.140Z,52.22
2018-03-03T07:43:38.343Z,49.63
2018-03-03T07:46:09.525Z,51.97
2018-03-03T07:48:40.388Z,47.72
2018-03-03T07:51:12.357Z,52.08
2018-03-03T07:53:44.687Z,43.95
2018-03-03T07:56:16.007Z,47.25
2018-03-03T07:58:51.662Z,50.50
2018-03-03T08:01:23.447Z,50.03
2018-03-03T08:03:54.803Z,49.65
2018-03-03T08:06:26.192Z,46.08
2018-03-03T08:08:58.619Z,47.75
2018-03-03T08:11:30.724Z,48.08
2018-03-03T08:14:02.729Z,49.65
2018-03-03T08:16:33.981Z,48.90
2018-03-03T08:19:05.977Z,47.67
2018-03-03T08:21:37.661Z,51.53
2018-03-03T08:24:09.943Z,48.30
2018-03-03T08:26:40.993Z,51.47
2018-03-03T08:29:12.535Z,53.00
2018-03-03T08:31:44.252Z,53.90
2018-03-03T08:34:15.321Z,53.15
2018-03-03T08:36:46.636Z,55.12
2018-03-03T08:39:17.742Z,49.13
2018-03-03T08:41:48.915Z,52.25
2018-03-03T08:44:20.849Z,48.83
2018-03-03T08:46:53.174Z,52.08
2018-03-03T08:49:24.626Z,50.58
2018-03-03T08:51:56.501Z,51.53
2018-03-03T08:54:28.267Z,49.72
2018-03-03T08:56:59.670Z,46.58
2018-03-03T08:59:31.806Z,49.75
2018-03-03T09:02:03.195Z,45.60
2018-03-03T09:04:34.507Z,50.53
2018-03-03T09:07:06.027Z,48.63
2018-03-03T09:09:37.242Z,48.03
2018-03-03T09:12:08.940Z,50.97
2018-03-03T09:14:40.381Z,45.08
2018-03-03T09:17:12.369Z,47.53
2018-03-03T09:19:43.392Z,48.65
2018-03-03T09:22:14.302Z,45.88
2018-03-03T09:24:45.329Z,48.45
2018-03-03T09:27:16.537Z,46.75
2018-03-03T09:29:48.882Z,47.33
2018-03-03T09:32:20.655Z,50.28
2018-03-03T09:34:52.827Z,48.72
2018-03-03T09:37:23.966Z,50.22
2018-03-03T09:39:55.216Z,48.83
2018-03-03T09:42:26.607Z,49.45
2018-03-03T09:44:57.711Z,55.55
2018-03-03T09:47:30.073Z,48.58
2018-03-03T09:50:01.365Z,47.72
2018-03-03T09:52:32.957Z,46.37
2018-03-03T09:55:05.219Z,47.08
2018-03-03T09:57:36.819Z,46.80
2018-03-03T10:00:07.798Z,44.08
2018-03-03T10:02:39.129Z,42.92
2018-03-03T10:05:10.415Z,46.95
2018-03-03T10:07:43.777Z,46.28
2018-03-03T10:10:16.130Z,47.47
2018-03-03T10:12:54.569Z,46.25
2018-03-03T10:15:29.714Z,43.28
2018-03-03T10:18:01.815Z,47.33
2018-03-03T10:20:32.869Z,45.60
2018-03-03T10:23:03.865Z,44.28
2018-03-03T10:25:35.080Z,43.40
2018-03-03T10:28:06.028Z,47.05
2018-03-03T10:30:37.326Z,45.50
2018-03-03T10:33:08.418Z,43.92
2018-03-03T10:35:39.508Z,48.78
2018-03-03T10:38:10.623Z,44.28
2018-03-03T10:40:41.626Z,45.75
2018-03-03T10:43:13.561Z,43.10
2018-03-03T10:45:45.451Z,46.03
2018-03-03T10:48:17.177Z,46.13
2018-03-03T10:50:48.327Z,52.42
2018-03-03T10:53:19.505Z,55.78
2018-03-03T10:55:50.396Z,47.33
2018-03-03T10:58:21.844Z,55.45
2018-03-03T11:01:55.303Z,51.97
2018-03-03T11:04:26.365Z,54.30
2018-03-03T11:06:58.114Z,47.08
2018-03-03T11:09:30.663Z,53.20
2018-03-03T11:12:01.359Z,52.33
2018-03-03T11:14:32.596Z,51.47
2018-03-03T11:17:03.524Z,53.35
2018-03-03T11:19:36.729Z,49.58
2018-03-03T11:22:08.002Z,48.95
2018-03-03T11:24:39.009Z,49.38
2018-03-03T11:27:10.739Z,48.80
2018-03-03T11:29:41.551Z,48.42
2018-03-03T11:32:12.573Z,46.92
2018-03-03T11:34:44.149Z,47.55
2018-03-03T11:37:15.197Z,51.22
2018-03-03T11:39:46.424Z,45.43
2018-03-03T11:42:18.623Z,48.37
2018-03-03T11:44:49.542Z,44.30
2018-03-03T11:47:20.812Z,42.13
2018-03-03T11:49:52.191Z,44.90
2018-03-03T11:52:24.706Z,43.80
2018-03-03T11:54:56.378Z,47.67
2018-03-03T11:57:27.477Z,45.80
2018-03-03T11:59:59.599Z,44.70
2018-03-03T12:02:31.213Z,47.20
2018-03-03T12:05:02.247Z,46.80
2018-03-03T12:07:36.409Z,42.83
2018-03-03T12:10:07.895Z,42.57
2018-03-03T12:12:38.895Z,42.90
2018-03-03T12:15:10.135Z,43.33
2018-03-03T12:17:41.234Z,41.97
2018-03-03T12:20:13.677Z,40.10
2018-03-03T12:22:45.938Z,41.13
2018-03-03T12:28:00.444Z,34.07
2018-03-03T12:30:34.451Z,36.90
2018-03-03T12:33:05.639Z,38.63
2018-03-03T12:35:37.194Z,40.00
2018-03-03T12:38:08.325Z,36.73
2018-03-03T12:40:40.640Z,39.23
2018-03-03T12:43:12.297Z,37.70
2018-03-03T12:45:45.446Z,38.63
2018-03-03T12:48:18.592Z,36.00
2018-03-03T12:50:50.024Z,38.33
2018-03-03T12:53:21.140Z,41.03
2018-03-03T12:55:53.937Z,37.97
2018-03-03T12:58:25.393Z,35.30
2018-03-03T13:01:03.030Z,36.00
2018-03-03T13:03:37.517Z,37.13
2018-03-03T13:06:11.136Z,36.20
2018-03-03T13:08:42.880Z,34.23
2018-03-03T13:11:16.849Z,37.03
2018-03-03T13:13:48.113Z,29.40
2018-03-03T13:16:21.125Z,34.17
2018-03-03T13:18:53.278Z,35.80
2018-03-03T13:21:25.764Z,33.53
2018-03-03T13:23:56.798Z,31.73
2018-03-03T13:26:29.251Z,32.20
2018-03-03T13:29:00.149Z,35.07
2018-03-03T13:31:30.979Z,31.90
2018-03-03T13:34:02.923Z,38.03
2018-03-03T13:36:34.125Z,32.33
2018-03-03T13:39:08.401Z,35.50
2018-03-03T13:41:40.187Z,49.27
2018-03-03T13:44:12.990Z,57.63
2018-03-03T13:46:46.759Z,66.93
2018-03-03T13:49:17.788Z,75.60
2018-03-03T13:51:50.857Z,74.40
2018-03-03T13:54:22.036Z,79.50
2018-03-03T13:56:53.887Z,67.67
2018-03-03T13:59:25.558Z,69.23
2018-03-03T14:01:56.758Z,78.00
2018-03-03T14:04:27.984Z,77.10
2018-03-03T14:06:59.327Z,76.67
2018-03-03T14:09:30.215Z,74.93
2018-03-03T14:12:03.012Z,69.67
2018-03-03T14:14:35.498Z,76.57
2018-03-03T14:17:06.866Z,75.00
2018-03-03T14:19:38.513Z,77.43
2018-03-03T14:22:11.797Z,77.33
2018-03-03T14:24:43.103Z,76.50
2018-03-03T14:27:15.998Z,74.87
2018-03-03T14:29:47.023Z,79.25
2018-03-03T14:32:21.171Z,88.17
2018-03-03T14:34:52.128Z,82.67
2018-03-03T14:37:23.404Z,76.35
2018-03-03T14:39:55.998Z,88.78
2018-03-03T14:42:27.164Z,87.90
2018-03-03T14:44:59.421Z,80.67
2018-03-03T14:47:31.690Z,82.60
2018-03-03T14:50:04.430Z,78.47
2018-03-03T14:52:35.357Z,78.47
2018-03-03T14:55:06.435Z,73.10
2018-03-03T14:57:37.161Z,79.15
2018-03-03T15:00:08.304Z,85.82
2018-03-03T15:02:39.858Z,81.87
2018-03-03T15:05:10.941Z,82.05
2018-03-03T15:07:42.100Z,85.72
2018-03-03T15:10:12.790Z,85.50
2018-03-03T15:12:44.114Z,83.87
2018-03-03T15:15:15.340Z,85.38
2018-03-03T15:17:46.342Z,84.72
2018-03-03T15:20:18.126Z,88.50
2018-03-03T15:22:48.984Z,82.07
2018-03-03T15:25:20.286Z,76.20
2018-03-03T15:27:53.985Z,81.90
2018-03-03T15:30:27.385Z,89.55
2018-03-03T15:32:58.577Z,80.95
2018-03-03T15:35:29.300Z,85.07
2018-03-03T15:38:00.668Z,84.50
2018-03-03T15:40:31.807Z,90.68
2018-03-03T15:43:02.809Z,87.93
2018-03-03T15:45:34.937Z,92.57
2018-03-03T15:48:06.807Z,82.05
2018-03-03T15:50:38.562Z,84.03
2018-03-03T15:53:09.415Z,86.83
2018-03-03T15:55:41.148Z,83.62
2018-03-03T15:58:13.974Z,75.35
2018-03-03T16:00:45.016Z,54.40
2018-03-03T16:03:17.614Z,42.73
2018-03-03T16:05:48.494Z,47.62
2018-03-03T16:08:20.248Z,52.28
2018-03-03T16:10:51.771Z,47.92
2018-03-03T16:13:22.659Z,45.00
2018-03-03T16:15:54.292Z,53.17
2018-03-03T16:18:25.384Z,53.33
2018-03-03T16:20:56.457Z,55.67
2018-03-03T16:23:27.386Z,50.53
2018-03-03T16:26:01.397Z,47.97
2018-03-03T16:28:32.515Z,53.97
2018-03-03T16:31:03.500Z,48.45
2018-03-03T16:33:34.281Z,56.37
2018-03-03T16:36:05.482Z,54.45
2018-03-03T16:38:36.555Z,54.83
2018-03-03T16:41:09.442Z,50.50
2018-03-03T16:43:41.341Z,44.85
2018-03-03T16:46:13.488Z,48.40
2018-03-03T16:48:45.637Z,49.75
2018-03-03T16:51:18.115Z,47.83
2018-03-03T16:53:50.040Z,45.12
2018-03-03T16:56:22.231Z,49.63
2018-03-03T16:58:54.645Z,51.28
2018-03-03T17:01:26.511Z,49.38
2018-03-03T17:03:58.681Z,49.78
2018-03-03T17:06:29.522Z,46.35
2018-03-03T17:09:00.616Z,49.33
2018-03-03T17:11:32.787Z,49.55
2018-03-03T17:14:04.280Z,45.88
2018-03-03T17:16:35.209Z,49.40
2018-03-03T17:19:07.747Z,56.92
2018-03-03T17:21:38.417Z,50.40
2018-03-03T17:24:09.466Z,52.53
2018-03-03T17:26:40.404Z,52.50
2018-03-03T17:29:11.634Z,62.25
2018-03-03T17:31:43.716Z,54.88
2018-03-03T17:34:26.502Z,58.38
2018-03-03T17:36:59.490Z,55.75
2018-03-03T17:39:33.450Z,60.28
2018-03-03T17:42:05.430Z,56.20
2018-03-03T17:44:36.480Z,65.30
2018-03-03T17:47:07.348Z,58.83
2018-03-03T17:49:38.343Z,54.90
2018-03-03T17:52:11.591Z,60.95
2018-03-03T17:54:46.738Z,64.80
2018-03-03T17:57:23.641Z,64.95
2018-03-03T18:01:13.704Z,62.67
2018-03-03T18:03:44.832Z,58.38
2018-03-03T18:06:16.596Z,52.03
2018-03-03T18:08:48.716Z,66.30
2018-03-03T18:11:20.154Z,63.00
2018-03-03T18:13:52.966Z,63.08
2018-03-03T18:16:23.692Z,66.35
2018-03-03T18:18:54.646Z,54.55
2018-03-03T18:21:26.826Z,62.15
2018-03-03T18:23:59.129Z,62.10
2018-03-03T18:26:29.985Z,59.28
2018-03-03T18:29:01.332Z,64.43
2018-03-03T18:31:32.323Z,60.95
2018-03-03T18:34:03.744Z,67.10
2018-03-03T18:36:34.852Z,63.30
2018-03-03T18:39:06.525Z,65.43
2018-03-03T18:41:37.358Z,69.05
2018-03-03T18:44:08.631Z,64.00
2018-03-03T18:46:39.480Z,65.80
2018-03-03T18:49:11.007Z,68.55
2018-03-03T18:51:42.777Z,64.53
2018-03-03T18:54:13.671Z,64.87
2018-03-03T18:56:44.887Z,74.07
2018-03-03T18:59:18.359Z,67.25
2018-03-03T19:01:50.451Z,68.03
2018-03-03T19:04:23.164Z,68.37
2018-03-03T19:06:53.980Z,68.80
2018-03-03T19:09:24.796Z,69.32
2018-03-03T19:11:56.278Z,68.95
2018-03-03T19:14:27.223Z,73.80
2018-03-03T19:16:58.349Z,64.43
2018-03-03T19:19:29.098Z,74.53
2018-03-03T19:21:59.962Z,66.18
2018-03-03T19:24:30.848Z,73.30
2018-03-03T19:27:01.807Z,71.75
2018-03-03T19:29:32.859Z,70.65
2018-03-03T19:32:05.962Z,66.55
2018-03-03T19:34:37.527Z,64.53
2018-03-03T19:37:08.974Z,72.25
2018-03-03T19:39:39.778Z,72.97
2018-03-03T19:42:11.781Z,66.10
2018-03-03T19:44:42.650Z,67.80
2018-03-03T19:47:16.309Z,78.03
2018-03-03T19:49:47.457Z,73.68
2018-03-03T19:52:18.639Z,66.82
2018-03-03T19:54:50.072Z,72.22
2018-03-03T19:57:22.770Z,67.53
2018-03-03T19:59:53.651Z,66.45
2018-03-03T20:02:24.589Z,71.10
2018-03-03T20:04:55.444Z,71.40
2018-03-03T20:07:26.205Z,69.95
2018-03-03T20:09:57.467Z,65.53
2018-03-03T20:12:30.961Z,66.15
2018-03-03T20:15:03.557Z,65.00
2018-03-03T20:17:34.868Z,66.78
2018-03-03T20:20:05.889Z,64.55
2018-03-03T20:22:38.466Z,72.15
2018-03-03T20:25:13.725Z,70.00
2018-03-03T20:27:44.594Z,63.38
2018-03-03T20:30:17.961Z,69.18
2018-03-03T20:32:49.454Z,66.37
2018-03-03T20:35:20.720Z,70.62
2018-03-03T20:37:51.884Z,67.37
2018-03-03T20:40:24.997Z,65.10
2018-03-03T20:42:56.035Z,62.08
2018-03-03T20:45:28.240Z,69.93
2018-03-03T20:47:59.274Z,65.35
2018-03-03T20:50:30.664Z,65.00
2018-03-03T20:53:02.849Z,68.70
2018-03-03T20:55:33.811Z,63.17
2018-03-03T20:58:05.998Z,70.07
2018-03-03T21:00:38.713Z,70.90
2018-03-03T21:03:15.310Z,60.85
2018-03-03T21:05:46.914Z,69.93
2018-03-03T21:08:19.378Z,70.53
2018-03-03T21:10:50.778Z,73.82
2018-03-03T21:13:22.010Z,65.68
2018-03-03T21:15:53.224Z,75.10
2018-03-03T21:18:25.054Z,73.87
2018-03-03T21:20:56.211Z,69.78
2018-03-03T21:23:29.133Z,74.85
2018-03-03T21:26:00.452Z,75.70
2018-03-03T21:28:32.758Z,71.10
2018-03-03T21:31:15.096Z,73.78
2018-03-03T21:33:46.558Z,73.22
2018-03-03T21:36:19.250Z,72.00
2018-03-03T21:38:52.222Z,76.43
2018-03-03T21:41:23.032Z,78.62
2018-03-03T21:43:55.870Z,81.53
2018-03-03T21:46:27.587Z,82.35
2018-03-03T21:48:58.565Z,83.35
2018-03-03T21:51:33.492Z,70.12
2018-03-03T21:54:05.165Z,75.87
2018-03-03T21:56:36.530Z,86.37
2018-03-03T21:59:10.584Z,69.93
2018-03-03T22:01:42.069Z,79.03
2018-03-03T22:04:13.720Z,81.55
2018-03-03T22:06:47.345Z,84.87
2018-03-03T22:09:24.100Z,79.90
2018-03-03T22:11:55.957Z,89.28
2018-03-03T22:14:28.362Z,88.90
2018-03-03T22:17:00.180Z,80.75
2018-03-03T22:19:34.773Z,75.70
2018-03-03T22:22:05.670Z,84.07
2018-03-03T22:24:38.968Z,78.28
2018-03-03T22:27:10.516Z,78.82
2018-03-03T22:29:42.030Z,79.35
2018-03-03T22:32:14.167Z,77.32
2018-03-03T22:34:45.172Z,80.28
2018-03-03T22:37:16.415Z,80.28
2018-03-03T22:39:48.075Z,76.85
2018-03-03T22:42:21.132Z,84.68
2018-03-03T22:44:53.177Z,77.35
2018-03-03T22:47:24.567Z,82.53
2018-03-03T22:49:55.858Z,85.45
2018-03-03T22:52:26.954Z,78.62
2018-03-03T22:54:58.657Z,82.53
2018-03-03T22:57:30.178Z,80.18
2018-03-03T23:00:02.430Z,81.53
2018-03-03T23:02:33.850Z,76.53
2018-03-03T23:05:05.016Z,80.10
2018-03-03T23:07:37.073Z,81.97
2018-03-03T23:10:09.094Z,73.78
2018-03-03T23:12:40.262Z,72.97
2018-03-03T23:15:14.106Z,68.62
2018-03-03T23:17:46.256Z,76.50
2018-03-03T23:20:18.555Z,71.90
2018-03-03T23:22:50.084Z,77.53
2018-03-03T23:25:22.035Z,69.57
2018-03-03T23:27:53.783Z,73.90
2018-03-03T23:30:25.574Z,76.35
2018-03-03T23:32:56.914Z,67.32
2018-03-03T23:35:29.374Z,63.80
2018-03-03T23:38:00.558Z,67.20
2018-03-03T23:40:31.833Z,65.07
2018-03-03T23:43:02.849Z,66.53
2018-03-03T23:45:34.694Z,68.57
2018-03-03T23:48:05.859Z,65.20
2018-03-03T23:50:40.060Z,66.05
2018-03-03T23:53:10.927Z,65.70
2018-03-03T23:55:41.948Z,62.05
2018-03-03T23:58:12.874Z,60.78
